sensor_id;sensor_type;location;lat;lon;timestamp;pressure;altitude;pressure_sealevel;temperature;humidity
78121;BME280;67585;44.802;10.332;2024-03-25T00:00:31;100228.75;;;11.75;nan
78121;BME280;67585;44.802;10.332;2024-03-25T00:02:56;100244.16;;;11.65;nan
78121;BME280;67585;44.802;10.332;2024-03-25T00:05:22;100230.78;;;11.39;nan
78121;BME280;67585;44.802;10.332;2024-03-25T00:07:48;100226.25;;;11.14;nan
78121;BME280;67585;44.802;10.332;2024-03-25T00:10:14;100246.91;;;11.49;nan
78121;BME280;67585;44.802;10.332;2024-03-25T00:12:40;100242.88;;;11.47;nan
78121;BME280;67585;44.802;10.332;2024-03-25T00:15:05;100250.19;;;11.36;nan
78121;BME280;67585;44.802;10.332;2024-03-25T00:17:31;100252.63;;;11.27;nan
78121;BME280;67585;44.802;10.332;2024-03-25T00:19:56;100232.63;;;11.49;nan
78121;BME280;67585;44.802;10.332;2024-03-25T00:22:23;100248.44;;;11.76;nan
78121;BME280;67585;44.802;10.332;2024-03-25T00:24:52;100254.41;;;11.73;nan
78121;BME280;67585;44.802;10.332;2024-03-25T00:27:18;100237.94;;;11.69;nan
78121;BME280;67585;44.802;10.332;2024-03-25T00:29:44;100247.69;;;11.65;nan
78121;BME280;67585;44.802;10.332;2024-03-25T00:32:09;100234.28;;;11.34;nan
78121;BME280;67585;44.802;10.332;2024-03-25T00:34:35;100247.75;;;11.40;nan
78121;BME280;67585;44.802;10.332;2024-03-25T00:37:01;100253.16;;;11.40;nan
78121;BME280;67585;44.802;10.332;2024-03-25T00:39:27;100248.28;;;11.42;nan
78121;BME280;67585;44.802;10.332;2024-03-25T00:41:53;100224.09;;;11.06;nan
78121;BME280;67585;44.802;10.332;2024-03-25T00:44:19;100231.91;;;11.12;nan
78121;BME280;67585;44.802;10.332;2024-03-25T00:46:44;100227.59;;;11.17;nan
78121;BME280;67585;44.802;10.332;2024-03-25T00:49:10;100222.19;;;11.01;nan
78121;BME280;67585;44.802;10.332;2024-03-25T00:51:36;100246.44;;;11.32;nan
78121;BME280;67585;44.802;10.332;2024-03-25T00:54:02;100250.22;;;11.16;nan
78121;BME280;67585;44.802;10.332;2024-03-25T00:56:31;100235.91;;;11.25;nan
78121;BME280;67585;44.802;10.332;2024-03-25T00:58:57;100251.75;;;11.52;nan
78121;BME280;67585;44.802;10.332;2024-03-25T01:01:27;100220.56;;;11.16;nan
78121;BME280;67585;44.802;10.332;2024-03-25T01:03:52;100253.97;;;11.35;nan
78121;BME280;67585;44.802;10.332;2024-03-25T01:06:18;100242.69;;;11.02;nan
78121;BME280;67585;44.802;10.332;2024-03-25T01:08:43;100230.28;;;11.01;nan
78121;BME280;67585;44.802;10.332;2024-03-25T01:11:10;100268.00;;;11.22;nan
78121;BME280;67585;44.802;10.332;2024-03-25T01:13:35;100262.91;;;11.05;nan
78121;BME280;67585;44.802;10.332;2024-03-25T01:16:00;100268.84;;;10.86;nan
78121;BME280;67585;44.802;10.332;2024-03-25T01:18:26;100276.13;;;10.91;nan
78121;BME280;67585;44.802;10.332;2024-03-25T01:20:51;100284.75;;;10.88;nan
78121;BME280;67585;44.802;10.332;2024-03-25T01:23:17;100288.75;;;11.11;nan
78121;BME280;67585;44.802;10.332;2024-03-25T01:25:42;100278.81;;;10.96;nan
78121;BME280;67585;44.802;10.332;2024-03-25T01:28:07;100277.19;;;11.00;nan
78121;BME280;67585;44.802;10.332;2024-03-25T01:30:33;100272.34;;;11.07;nan
78121;BME280;67585;44.802;10.332;2024-03-25T01:33:01;100248.91;;;10.87;nan
78121;BME280;67585;44.802;10.332;2024-03-25T01:35:26;100259.38;;;11.04;nan
78121;BME280;67585;44.802;10.332;2024-03-25T01:37:52;100250.50;;;11.04;nan
78121;BME280;67585;44.802;10.332;2024-03-25T01:40:18;100241.06;;;10.91;nan
78121;BME280;67585;44.802;10.332;2024-03-25T01:42:43;100257.53;;;11.00;nan
78121;BME280;67585;44.802;10.332;2024-03-25T01:45:09;100258.31;;;11.10;nan
78121;BME280;67585;44.802;10.332;2024-03-25T01:47:35;100256.44;;;11.01;nan
78121;BME280;67585;44.802;10.332;2024-03-25T01:50:03;100263.97;;;11.04;nan
78121;BME280;67585;44.802;10.332;2024-03-25T01:52:29;100269.63;;;11.12;nan
78121;BME280;67585;44.802;10.332;2024-03-25T01:54:55;100231.91;;;10.92;nan
78121;BME280;67585;44.802;10.332;2024-03-25T01:57:21;100234.31;;;11.09;nan
78121;BME280;67585;44.802;10.332;2024-03-25T01:59:47;100268.22;;;11.41;nan
78121;BME280;67585;44.802;10.332;2024-03-25T02:02:13;100266.94;;;11.12;nan
78121;BME280;67585;44.802;10.332;2024-03-25T02:04:42;100258.03;;;11.22;nan
78121;BME280;67585;44.802;10.332;2024-03-25T02:07:08;100255.06;;;11.19;nan
78121;BME280;67585;44.802;10.332;2024-03-25T02:09:35;100231.94;;;10.97;nan
78121;BME280;67585;44.802;10.332;2024-03-25T02:12:02;100248.00;;;11.53;nan
78121;BME280;67585;44.802;10.332;2024-03-25T02:14:27;100252.38;;;11.08;nan
78121;BME280;67585;44.802;10.332;2024-03-25T02:16:53;100237.25;;;11.28;nan
78121;BME280;67585;44.802;10.332;2024-03-25T02:19:19;100256.66;;;11.30;nan
78121;BME280;67585;44.802;10.332;2024-03-25T02:21:46;100250.41;;;11.55;nan
78121;BME280;67585;44.802;10.332;2024-03-25T02:24:12;100245.88;;;11.35;nan
78121;BME280;67585;44.802;10.332;2024-03-25T02:26:39;100250.44;;;11.40;nan
78121;BME280;67585;44.802;10.332;2024-03-25T02:29:04;100242.06;;;11.46;nan
78121;BME280;67585;44.802;10.332;2024-03-25T02:31:29;100249.31;;;11.61;nan
78121;BME280;67585;44.802;10.332;2024-03-25T02:33:55;100241.34;;;11.00;nan
78121;BME280;67585;44.802;10.332;2024-03-25T02:36:20;100244.81;;;11.21;nan
78121;BME280;67585;44.802;10.332;2024-03-25T02:38:46;100250.50;;;11.19;nan
78121;BME280;67585;44.802;10.332;2024-03-25T02:41:11;100249.69;;;11.03;nan
78121;BME280;67585;44.802;10.332;2024-03-25T02:43:36;100244.03;;;10.74;nan
78121;BME280;67585;44.802;10.332;2024-03-25T02:46:02;100258.06;;;10.86;nan
78121;BME280;67585;44.802;10.332;2024-03-25T02:48:27;100234.63;;;10.66;nan
78121;BME280;67585;44.802;10.332;2024-03-25T02:50:53;100242.16;;;10.69;nan
78121;BME280;67585;44.802;10.332;2024-03-25T02:53:18;100215.22;;;10.54;nan
78121;BME280;67585;44.802;10.332;2024-03-25T02:55:43;100220.88;;;10.73;nan
78121;BME280;67585;44.802;10.332;2024-03-25T02:58:09;100235.16;;;10.89;nan
78121;BME280;67585;44.802;10.332;2024-03-25T03:00:34;100223.28;;;10.75;nan
78121;BME280;67585;44.802;10.332;2024-03-25T03:02:59;100212.81;;;10.68;nan
78121;BME280;67585;44.802;10.332;2024-03-25T03:05:25;100211.19;;;10.46;nan
78121;BME280;67585;44.802;10.332;2024-03-25T03:07:50;100221.69;;;10.74;nan
78121;BME280;67585;44.802;10.332;2024-03-25T03:10:15;100226.53;;;10.61;nan
78121;BME280;67585;44.802;10.332;2024-03-25T03:12:41;100239.75;;;10.83;nan
78121;BME280;67585;44.802;10.332;2024-03-25T03:15:07;100254.25;;;10.46;nan
78121;BME280;67585;44.802;10.332;2024-03-25T03:17:32;100217.09;;;10.48;nan
78121;BME280;67585;44.802;10.332;2024-03-25T03:19:58;100244.56;;;10.56;nan
78121;BME280;67585;44.802;10.332;2024-03-25T03:22:23;100233.81;;;10.81;nan
78121;BME280;67585;44.802;10.332;2024-03-25T03:24:48;100231.13;;;10.76;nan
78121;BME280;67585;44.802;10.332;2024-03-25T03:27:14;100256.44;;;10.80;nan
78121;BME280;67585;44.802;10.332;2024-03-25T03:29:40;100262.63;;;10.86;nan
78121;BME280;67585;44.802;10.332;2024-03-25T03:32:05;100252.94;;;10.64;nan
78121;BME280;67585;44.802;10.332;2024-03-25T03:34:31;100263.44;;;10.61;nan
78121;BME280;67585;44.802;10.332;2024-03-25T03:36:56;100261.78;;;10.34;nan
78121;BME280;67585;44.802;10.332;2024-03-25T03:39:21;100249.94;;;10.35;nan
78121;BME280;67585;44.802;10.332;2024-03-25T03:41:47;100251.53;;;10.36;nan
78121;BME280;67585;44.802;10.332;2024-03-25T03:44:12;100235.56;;;10.14;nan
78121;BME280;67585;44.802;10.332;2024-03-25T03:46:40;100255.31;;;10.35;nan
78121;BME280;67585;44.802;10.332;2024-03-25T03:49:05;100239.91;;;10.20;nan
78121;BME280;67585;44.802;10.332;2024-03-25T03:51:30;100248.22;;;10.19;nan
78121;BME280;67585;44.802;10.332;2024-03-25T03:53:56;100233.94;;;10.03;nan
78121;BME280;67585;44.802;10.332;2024-03-25T03:56:22;100248.84;;;10.31;nan
78121;BME280;67585;44.802;10.332;2024-03-25T03:58:47;100231.63;;;10.32;nan
78121;BME280;67585;44.802;10.332;2024-03-25T04:01:18;100232.88;;;10.19;nan
78121;BME280;67585;44.802;10.332;2024-03-25T04:03:44;100247.75;;;10.27;nan
78121;BME280;67585;44.802;10.332;2024-03-25T04:06:11;100258.44;;;10.06;nan
78121;BME280;67585;44.802;10.332;2024-03-25T04:08:38;100225.00;;;9.87;nan
78121;BME280;67585;44.802;10.332;2024-03-25T04:11:04;100232.31;;;10.07;nan
78121;BME280;67585;44.802;10.332;2024-03-25T04:13:31;100248.78;;;10.16;nan
78121;BME280;67585;44.802;10.332;2024-03-25T04:16:01;100228.47;;;9.77;nan
78121;BME280;67585;44.802;10.332;2024-03-25T04:18:27;100243.13;;;10.12;nan
78121;BME280;67585;44.802;10.332;2024-03-25T04:20:53;100249.00;;;9.99;nan
78121;BME280;67585;44.802;10.332;2024-03-25T04:23:18;100240.94;;;10.09;nan
78121;BME280;67585;44.802;10.332;2024-03-25T04:25:44;100230.03;;;9.68;nan
78121;BME280;67585;44.802;10.332;2024-03-25T04:28:10;100268.81;;;9.82;nan
78121;BME280;67585;44.802;10.332;2024-03-25T04:30:35;100271.22;;;9.69;nan
78121;BME280;67585;44.802;10.332;2024-03-25T04:33:01;100273.84;;;9.63;nan
78121;BME280;67585;44.802;10.332;2024-03-25T04:35:27;100271.28;;;9.89;nan
78121;BME280;67585;44.802;10.332;2024-03-25T04:37:52;100276.22;;;9.55;nan
78121;BME280;67585;44.802;10.332;2024-03-25T04:40:17;100259.59;;;9.15;nan
78121;BME280;67585;44.802;10.332;2024-03-25T04:42:45;100260.94;;;9.18;nan
78121;BME280;67585;44.802;10.332;2024-03-25T04:45:11;100282.63;;;9.49;nan
78121;BME280;67585;44.802;10.332;2024-03-25T04:47:37;100285.22;;;9.33;nan
78121;BME280;67585;44.802;10.332;2024-03-25T04:50:02;100269.47;;;9.10;nan
78121;BME280;67585;44.802;10.332;2024-03-25T04:52:28;100281.94;;;9.21;nan
78121;BME280;67585;44.802;10.332;2024-03-25T04:54:53;100289.50;;;9.29;nan
78121;BME280;67585;44.802;10.332;2024-03-25T04:57:18;100301.69;;;9.42;nan
78121;BME280;67585;44.802;10.332;2024-03-25T04:59:44;100296.69;;;9.18;nan
78121;BME280;67585;44.802;10.332;2024-03-25T05:02:09;100278.88;;;9.07;nan
78121;BME280;67585;44.802;10.332;2024-03-25T05:04:35;100277.44;;;8.94;nan
78121;BME280;67585;44.802;10.332;2024-03-25T05:07:00;100290.09;;;8.99;nan
78121;BME280;67585;44.802;10.332;2024-03-25T05:09:26;100303.34;;;9.11;nan
78121;BME280;67585;44.802;10.332;2024-03-25T05:11:51;100290.56;;;8.91;nan
78121;BME280;67585;44.802;10.332;2024-03-25T05:14:17;100310.66;;;8.88;nan
78121;BME280;67585;44.802;10.332;2024-03-25T05:16:42;100195.81;;;8.09;nan
78121;BME280;67585;44.802;10.332;2024-03-25T05:19:09;100281.66;;;8.58;nan
78121;BME280;67585;44.802;10.332;2024-03-25T05:21:34;100320.28;;;8.79;nan
78121;BME280;67585;44.802;10.332;2024-03-25T05:23:59;100318.41;;;8.80;nan
78121;BME280;67585;44.802;10.332;2024-03-25T05:26:25;100308.22;;;8.82;nan
78121;BME280;67585;44.802;10.332;2024-03-25T05:28:56;100316.28;;;8.82;nan
78121;BME280;67585;44.802;10.332;2024-03-25T05:31:22;100321.13;;;8.85;nan
78121;BME280;67585;44.802;10.332;2024-03-25T05:33:48;100319.81;;;8.87;nan
78121;BME280;67585;44.802;10.332;2024-03-25T05:36:13;100340.69;;;8.80;nan
78121;BME280;67585;44.802;10.332;2024-03-25T05:38:39;100339.13;;;8.84;nan
78121;BME280;67585;44.802;10.332;2024-03-25T05:41:05;100341.75;;;8.79;nan
78121;BME280;67585;44.802;10.332;2024-03-25T05:43:30;100361.53;;;9.00;nan
78121;BME280;67585;44.802;10.332;2024-03-25T05:45:56;100356.41;;;8.93;nan
78121;BME280;67585;44.802;10.332;2024-03-25T05:48:24;100360.34;;;8.86;nan
78121;BME280;67585;44.802;10.332;2024-03-25T05:50:59;100362.38;;;9.01;nan
78121;BME280;67585;44.802;10.332;2024-03-25T05:53:26;100347.41;;;8.83;nan
78121;BME280;67585;44.802;10.332;2024-03-25T05:55:52;100362.09;;;9.02;nan
78121;BME280;67585;44.802;10.332;2024-03-25T05:58:17;100306.06;;;8.56;nan
78121;BME280;67585;44.802;10.332;2024-03-25T06:00:43;100327.88;;;10.10;nan
78121;BME280;67585;44.802;10.332;2024-03-25T06:03:08;100355.34;;;12.97;nan
78121;BME280;67585;44.802;10.332;2024-03-25T06:05:33;100303.66;;;12.64;nan
78121;BME280;67585;44.802;10.332;2024-03-25T06:07:59;100361.56;;;13.90;nan
78121;BME280;67585;44.802;10.332;2024-03-25T06:10:24;100349.78;;;14.48;nan
78121;BME280;67585;44.802;10.332;2024-03-25T06:12:49;100360.19;;;14.17;nan
78121;BME280;67585;44.802;10.332;2024-03-25T06:15:15;100366.66;;;11.89;nan
78121;BME280;67585;44.802;10.332;2024-03-25T06:17:40;100364.72;;;10.04;nan
78121;BME280;67585;44.802;10.332;2024-03-25T06:20:06;100352.19;;;9.77;nan
78121;BME280;67585;44.802;10.332;2024-03-25T06:22:31;100363.72;;;9.73;nan
78121;BME280;67585;44.802;10.332;2024-03-25T06:24:57;100358.94;;;9.37;nan
78121;BME280;67585;44.802;10.332;2024-03-25T06:27:22;100363.84;;;9.51;nan
78121;BME280;67585;44.802;10.332;2024-03-25T06:29:48;100371.94;;;9.56;nan
78121;BME280;67585;44.802;10.332;2024-03-25T06:32:13;100362.41;;;9.75;nan
78121;BME280;67585;44.802;10.332;2024-03-25T06:34:58;100343.22;;;9.61;nan
78121;BME280;67585;44.802;10.332;2024-03-25T06:37:26;100379.69;;;9.90;nan
78121;BME280;67585;44.802;10.332;2024-03-25T06:39:52;100376.34;;;10.15;nan
78121;BME280;67585;44.802;10.332;2024-03-25T06:42:18;100376.59;;;10.13;nan
78121;BME280;67585;44.802;10.332;2024-03-25T06:44:44;100368.75;;;10.06;nan
78121;BME280;67585;44.802;10.332;2024-03-25T06:47:14;100357.84;;;10.29;nan
78121;BME280;67585;44.802;10.332;2024-03-25T06:49:40;100372.34;;;11.26;nan
78121;BME280;67585;44.802;10.332;2024-03-25T06:52:05;100372.59;;;10.99;nan
78121;BME280;67585;44.802;10.332;2024-03-25T06:54:31;100365.56;;;11.90;nan
78121;BME280;67585;44.802;10.332;2024-03-25T06:56:56;100326.72;;;11.66;nan
78121;BME280;67585;44.802;10.332;2024-03-25T06:59:22;100373.31;;;12.17;nan
78121;BME280;67585;44.802;10.332;2024-03-25T07:01:47;100363.03;;;14.06;nan
78121;BME280;67585;44.802;10.332;2024-03-25T07:04:12;100315.72;;;13.75;nan
78121;BME280;67585;44.802;10.332;2024-03-25T07:06:38;100373.31;;;12.12;nan
78121;BME280;67585;44.802;10.332;2024-03-25T07:09:03;100343.41;;;11.83;nan
78121;BME280;67585;44.802;10.332;2024-03-25T07:11:28;100351.19;;;12.10;nan
78121;BME280;67585;44.802;10.332;2024-03-25T07:13:54;100344.19;;;12.09;nan
78121;BME280;67585;44.802;10.332;2024-03-25T07:16:19;100365.38;;;12.42;nan
78121;BME280;67585;44.802;10.332;2024-03-25T07:18:44;100374.47;;;12.61;nan
78121;BME280;67585;44.802;10.332;2024-03-25T07:21:10;100358.16;;;12.27;nan
78121;BME280;67585;44.802;10.332;2024-03-25T07:23:35;100381.31;;;12.93;nan
78121;BME280;67585;44.802;10.332;2024-03-25T07:26:03;100387.06;;;12.81;nan
78121;BME280;67585;44.802;10.332;2024-03-25T07:28:29;100385.28;;;13.45;nan
78121;BME280;67585;44.802;10.332;2024-03-25T07:30:54;100354.31;;;13.56;nan
78121;BME280;67585;44.802;10.332;2024-03-25T07:33:20;100349.84;;;13.07;nan
78121;BME280;67585;44.802;10.332;2024-03-25T07:35:45;100383.19;;;13.66;nan
78121;BME280;67585;44.802;10.332;2024-03-25T07:38:11;100331.25;;;13.64;nan
78121;BME280;67585;44.802;10.332;2024-03-25T07:40:36;100361.69;;;13.80;nan
78121;BME280;67585;44.802;10.332;2024-03-25T07:43:02;100362.03;;;13.97;nan
78121;BME280;67585;44.802;10.332;2024-03-25T07:45:27;100397.31;;;14.40;nan
78121;BME280;67585;44.802;10.332;2024-03-25T07:47:53;100399.16;;;14.69;nan
78121;BME280;67585;44.802;10.332;2024-03-25T07:50:20;100398.03;;;13.98;nan
78121;BME280;67585;44.802;10.332;2024-03-25T07:52:46;100398.31;;;14.68;nan
78121;BME280;67585;44.802;10.332;2024-03-25T07:55:12;100387.84;;;15.00;nan
78121;BME280;67585;44.802;10.332;2024-03-25T07:57:38;100367.69;;;14.68;nan
78121;BME280;67585;44.802;10.332;2024-03-25T08:00:04;100384.41;;;15.46;nan
78121;BME280;67585;44.802;10.332;2024-03-25T08:02:30;100383.03;;;15.95;nan
78121;BME280;67585;44.802;10.332;2024-03-25T08:04:55;100393.38;;;15.46;nan
78121;BME280;67585;44.802;10.332;2024-03-25T08:07:21;100391.44;;;15.79;nan
78121;BME280;67585;44.802;10.332;2024-03-25T08:09:46;100367.25;;;15.64;nan
78121;BME280;67585;44.802;10.332;2024-03-25T08:12:11;100372.41;;;15.33;nan
78121;BME280;67585;44.802;10.332;2024-03-25T08:14:37;100393.75;;;15.72;nan
78121;BME280;67585;44.802;10.332;2024-03-25T08:17:02;100375.19;;;15.60;nan
78121;BME280;67585;44.802;10.332;2024-03-25T08:19:29;100384.72;;;15.44;nan
78121;BME280;67585;44.802;10.332;2024-03-25T08:21:54;100386.25;;;15.83;nan
78121;BME280;67585;44.802;10.332;2024-03-25T08:24:19;100354.44;;;16.25;nan
78121;BME280;67585;44.802;10.332;2024-03-25T08:26:45;100377.19;;;16.01;nan
78121;BME280;67585;44.802;10.332;2024-03-25T08:29:10;100351.63;;;16.16;nan
78121;BME280;67585;44.802;10.332;2024-03-25T08:31:35;100352.97;;;16.55;nan
78121;BME280;67585;44.802;10.332;2024-03-25T08:34:01;100392.91;;;16.46;nan
78121;BME280;67585;44.802;10.332;2024-03-25T08:36:26;100385.41;;;16.79;nan
78121;BME280;67585;44.802;10.332;2024-03-25T08:38:51;100342.16;;;16.41;nan
78121;BME280;67585;44.802;10.332;2024-03-25T08:41:17;100358.75;;;16.40;nan
78121;BME280;67585;44.802;10.332;2024-03-25T08:43:42;100385.72;;;16.64;nan
78121;BME280;67585;44.802;10.332;2024-03-25T08:46:07;100336.31;;;16.48;nan
78121;BME280;67585;44.802;10.332;2024-03-25T08:48:33;100349.56;;;17.00;nan
78121;BME280;67585;44.802;10.332;2024-03-25T08:50:58;100357.00;;;17.62;nan
78121;BME280;67585;44.802;10.332;2024-03-25T08:53:23;100375.13;;;17.66;nan
78121;BME280;67585;44.802;10.332;2024-03-25T08:55:49;100367.06;;;17.07;nan
78121;BME280;67585;44.802;10.332;2024-03-25T08:58:15;100367.75;;;16.91;nan
78121;BME280;67585;44.802;10.332;2024-03-25T09:00:41;100347.28;;;17.38;nan
78121;BME280;67585;44.802;10.332;2024-03-25T09:03:07;100361.16;;;17.59;nan
78121;BME280;67585;44.802;10.332;2024-03-25T09:05:33;100353.09;;;18.17;nan
78121;BME280;67585;44.802;10.332;2024-03-25T09:07:59;100353.53;;;17.70;nan
78121;BME280;67585;44.802;10.332;2024-03-25T09:10:25;100295.63;;;17.96;nan
78121;BME280;67585;44.802;10.332;2024-03-25T09:13:09;100359.19;;;18.13;nan
78121;BME280;67585;44.802;10.332;2024-03-25T09:15:35;100358.94;;;18.41;nan
78121;BME280;67585;44.802;10.332;2024-03-25T09:18:00;100350.94;;;18.53;nan
78121;BME280;67585;44.802;10.332;2024-03-25T09:20:25;100337.19;;;18.93;nan
78121;BME280;67585;44.802;10.332;2024-03-25T09:22:51;100353.00;;;17.90;nan
78121;BME280;67585;44.802;10.332;2024-03-25T09:25:17;100355.38;;;18.23;nan
78121;BME280;67585;44.802;10.332;2024-03-25T09:27:50;100369.56;;;19.38;nan
78121;BME280;67585;44.802;10.332;2024-03-25T09:30:16;100345.84;;;18.87;nan
78121;BME280;67585;44.802;10.332;2024-03-25T09:32:42;100330.59;;;19.03;nan
78121;BME280;67585;44.802;10.332;2024-03-25T09:35:09;100356.13;;;18.06;nan
78121;BME280;67585;44.802;10.332;2024-03-25T09:37:34;100358.81;;;17.98;nan
78121;BME280;67585;44.802;10.332;2024-03-25T09:40:00;100350.31;;;18.74;nan
78121;BME280;67585;44.802;10.332;2024-03-25T09:42:26;100284.84;;;18.83;nan
78121;BME280;67585;44.802;10.332;2024-03-25T09:44:56;100343.81;;;19.57;nan
78121;BME280;67585;44.802;10.332;2024-03-25T09:47:22;100360.25;;;19.22;nan
78121;BME280;67585;44.802;10.332;2024-03-25T09:49:48;100352.19;;;19.43;nan
78121;BME280;67585;44.802;10.332;2024-03-25T09:52:17;100344.38;;;19.07;nan
78121;BME280;67585;44.802;10.332;2024-03-25T09:54:42;100293.19;;;19.51;nan
78121;BME280;67585;44.802;10.332;2024-03-25T09:57:08;100343.47;;;19.58;nan
78121;BME280;67585;44.802;10.332;2024-03-25T09:59:34;100327.25;;;19.53;nan
78121;BME280;67585;44.802;10.332;2024-03-25T10:02:01;100339.22;;;20.17;nan
78121;BME280;67585;44.802;10.332;2024-03-25T10:04:26;100321.34;;;19.90;nan
78121;BME280;67585;44.802;10.332;2024-03-25T10:06:52;100312.56;;;20.14;nan
78121;BME280;67585;44.802;10.332;2024-03-25T10:09:20;100318.72;;;20.53;nan
78121;BME280;67585;44.802;10.332;2024-03-25T10:11:49;100310.47;;;20.11;nan
78121;BME280;67585;44.802;10.332;2024-03-25T10:14:18;100313.44;;;20.56;nan
78121;BME280;67585;44.802;10.332;2024-03-25T10:16:48;100302.78;;;20.55;nan
78121;BME280;67585;44.802;10.332;2024-03-25T10:19:14;100298.34;;;20.71;nan
78121;BME280;67585;44.802;10.332;2024-03-25T10:21:40;100307.78;;;20.53;nan
78121;BME280;67585;44.802;10.332;2024-03-25T10:24:05;100267.41;;;20.28;nan
78121;BME280;67585;44.802;10.332;2024-03-25T10:26:32;100306.19;;;20.52;nan
78121;BME280;67585;44.802;10.332;2024-03-25T10:29:02;100294.25;;;20.77;nan
78121;BME280;67585;44.802;10.332;2024-03-25T10:31:37;100293.91;;;20.58;nan
78121;BME280;67585;44.802;10.332;2024-03-25T10:34:02;100288.28;;;20.96;nan
78121;BME280;67585;44.802;10.332;2024-03-25T10:36:28;100286.38;;;21.09;nan
78121;BME280;67585;44.802;10.332;2024-03-25T10:38:57;100284.38;;;20.64;nan
78121;BME280;67585;44.802;10.332;2024-03-25T10:41:23;100277.41;;;20.45;nan
78121;BME280;67585;44.802;10.332;2024-03-25T10:43:51;100244.50;;;20.33;nan
78121;BME280;67585;44.802;10.332;2024-03-25T10:46:21;100262.56;;;20.55;nan
78121;BME280;67585;44.802;10.332;2024-03-25T10:49:16;100236.25;;;20.42;nan
78121;BME280;67585;44.802;10.332;2024-03-25T10:51:49;100241.00;;;20.87;nan
78121;BME280;67585;44.802;10.332;2024-03-25T10:54:15;100258.06;;;20.72;nan
78121;BME280;67585;44.802;10.332;2024-03-25T10:56:42;100252.81;;;20.24;nan
78121;BME280;67585;44.802;10.332;2024-03-25T10:59:10;100212.00;;;20.74;nan
78121;BME280;67585;44.802;10.332;2024-03-25T11:01:36;100225.84;;;20.56;nan
78121;BME280;67585;44.802;10.332;2024-03-25T11:04:02;100234.38;;;19.83;nan
78121;BME280;67585;44.802;10.332;2024-03-25T11:06:31;100205.03;;;20.01;nan
78121;BME280;67585;44.802;10.332;2024-03-25T11:08:57;100227.44;;;20.36;nan
78121;BME280;67585;44.802;10.332;2024-03-25T11:11:23;100245.84;;;20.06;nan
78121;BME280;67585;44.802;10.332;2024-03-25T11:13:49;100239.78;;;20.21;nan
78121;BME280;67585;44.802;10.332;2024-03-25T11:16:26;100245.63;;;20.53;nan
78121;BME280;67585;44.802;10.332;2024-03-25T11:18:53;100225.97;;;20.93;nan
78121;BME280;67585;44.802;10.332;2024-03-25T11:21:25;100237.94;;;20.88;nan
78121;BME280;67585;44.802;10.332;2024-03-25T11:23:51;100204.09;;;20.60;nan
78121;BME280;67585;44.802;10.332;2024-03-25T11:28:43;100228.22;;;19.95;nan
78121;BME280;67585;44.802;10.332;2024-03-25T11:31:09;100234.94;;;20.27;nan
78121;BME280;67585;44.802;10.332;2024-03-25T11:33:38;100210.41;;;20.52;nan
78121;BME280;67585;44.802;10.332;2024-03-25T11:36:04;100199.13;;;20.74;nan
78121;BME280;67585;44.802;10.332;2024-03-25T11:38:29;100221.19;;;20.57;nan
78121;BME280;67585;44.802;10.332;2024-03-25T11:40:54;100215.03;;;20.60;nan
78121;BME280;67585;44.802;10.332;2024-03-25T11:43:22;100191.63;;;19.49;nan
78121;BME280;67585;44.802;10.332;2024-03-25T11:45:47;100217.53;;;18.95;nan
78121;BME280;67585;44.802;10.332;2024-03-25T11:48:16;100224.00;;;19.29;nan
78121;BME280;67585;44.802;10.332;2024-03-25T11:50:46;100202.53;;;19.57;nan
78121;BME280;67585;44.802;10.332;2024-03-25T11:53:14;100189.53;;;20.26;nan
78121;BME280;67585;44.802;10.332;2024-03-25T11:55:41;100192.97;;;20.89;nan
78121;BME280;67585;44.802;10.332;2024-03-25T11:58:07;100201.78;;;20.83;nan
78121;BME280;67585;44.802;10.332;2024-03-25T12:00:33;100194.72;;;20.94;nan
78121;BME280;67585;44.802;10.332;2024-03-25T12:02:59;100204.81;;;20.69;nan
78121;BME280;67585;44.802;10.332;2024-03-25T12:05:24;100210.59;;;20.67;nan
78121;BME280;67585;44.802;10.332;2024-03-25T12:07:52;100197.81;;;20.38;nan
78121;BME280;67585;44.802;10.332;2024-03-25T12:10:19;100194.94;;;20.89;nan
78121;BME280;67585;44.802;10.332;2024-03-25T12:13:03;100190.13;;;20.86;nan
78121;BME280;67585;44.802;10.332;2024-03-25T12:15:28;100171.47;;;19.62;nan
78121;BME280;67585;44.802;10.332;2024-03-25T12:17:54;100167.97;;;19.61;nan
78121;BME280;67585;44.802;10.332;2024-03-25T12:20:20;100138.50;;;20.30;nan
78121;BME280;67585;44.802;10.332;2024-03-25T12:22:45;100157.59;;;20.18;nan
78121;BME280;67585;44.802;10.332;2024-03-25T12:25:11;100172.19;;;19.80;nan
78121;BME280;67585;44.802;10.332;2024-03-25T12:27:37;100143.34;;;19.32;nan
78121;BME280;67585;44.802;10.332;2024-03-25T12:30:06;100152.91;;;19.17;nan
78121;BME280;67585;44.802;10.332;2024-03-25T12:32:39;100158.03;;;18.80;nan
78121;BME280;67585;44.802;10.332;2024-03-25T12:35:18;100141.50;;;18.59;nan
78121;BME280;67585;44.802;10.332;2024-03-25T12:37:47;100149.09;;;19.09;nan
78121;BME280;67585;44.802;10.332;2024-03-25T12:40:25;100124.25;;;18.29;nan
78121;BME280;67585;44.802;10.332;2024-03-25T12:42:54;100112.66;;;17.71;nan
78121;BME280;67585;44.802;10.332;2024-03-25T12:45:20;100145.91;;;17.82;nan
78121;BME280;67585;44.802;10.332;2024-03-25T12:47:46;100143.25;;;17.50;nan
78121;BME280;67585;44.802;10.332;2024-03-25T12:50:11;100100.88;;;17.84;nan
78121;BME280;67585;44.802;10.332;2024-03-25T12:52:37;100108.69;;;17.86;nan
78121;BME280;67585;44.802;10.332;2024-03-25T12:55:03;100130.66;;;18.33;nan
78121;BME280;67585;44.802;10.332;2024-03-25T12:57:29;100079.38;;;18.00;nan
78121;BME280;67585;44.802;10.332;2024-03-25T12:59:54;100124.56;;;18.10;nan